sensor_id;sensor_type;location;lat;lon;timestamp;pressure;altitude;pressure_sealevel;temperature;humidity
2785;BME280;57944;48.722;9.316;2023-09-07T00:00:57;98397.50;;;13.34;100.00
2785;BME280;57944;48.722;9.316;2023-09-07T00:03:31;98398.50;;;13.33;100.00
2785;BME280;57944;48.722;9.316;2023-09-07T00:06:02;98402.44;;;13.35;100.00
2785;BME280;57944;48.722;9.316;2023-09-07T00:08:32;98394.53;;;13.37;100.00
2785;BME280;57944;48.722;9.316;2023-09-07T00:11:03;98390.22;;;13.31;100.00
2785;BME280;57944;48.722;9.316;2023-09-07T00:13:34;98390.63;;;13.28;100.00
2785;BME280;57944;48.722;9.316;2023-09-07T00:16:05;98394.94;;;13.21;100.00
2785;BME280;57944;48.722;9.316;2023-09-07T00:18:39;98392.75;;;13.17;100.00
2785;BME280;57944;48.722;9.316;2023-09-07T00:21:09;98393.34;;;13.19;100.00
2785;BME280;57944;48.722;9.316;2023-09-07T00:23:40;98385.28;;;13.16;100.00
2785;BME280;57944;48.722;9.316;2023-09-07T00:26:11;98388.63;;;13.16;100.00
2785;BME280;57944;48.722;9.316;2023-09-07T00:28:43;98386.66;;;13.18;100.00
2785;BME280;57944;48.722;9.316;2023-09-07T00:31:16;98384.72;;;13.21;100.00
2785;BME280;57944;48.722;9.316;2023-09-07T00:33:52;98391.19;;;13.16;100.00
2785;BME280;57944;48.722;9.316;2023-09-07T00:36:25;98401.44;;;13.16;100.00
2785;BME280;57944;48.722;9.316;2023-09-07T00:38:55;98395.34;;;13.11;100.00
2785;BME280;57944;48.722;9.316;2023-09-07T00:41:26;98395.34;;;13.11;100.00
2785;BME280;57944;48.722;9.316;2023-09-07T00:43:56;98401.63;;;13.08;100.00
2785;BME280;57944;48.722;9.316;2023-09-07T00:46:27;98407.91;;;13.06;100.00
2785;BME280;57944;48.722;9.316;2023-09-07T00:49:01;98398.09;;;12.96;100.00
2785;BME280;57944;48.722;9.316;2023-09-07T00:51:34;98399.28;;;12.93;100.00
2785;BME280;57944;48.722;9.316;2023-09-07T00:54:05;98399.28;;;12.93;100.00
2785;BME280;57944;48.722;9.316;2023-09-07T00:56:36;98403.00;;;12.91;100.00
2785;BME280;57944;48.722;9.316;2023-09-07T00:59:08;98401.25;;;12.85;100.00
2785;BME280;57944;48.722;9.316;2023-09-07T01:01:38;98392.97;;;12.83;100.00
2785;BME280;57944;48.722;9.316;2023-09-07T01:04:12;98398.47;;;12.80;100.00
2785;BME280;57944;48.722;9.316;2023-09-07T01:06:47;98393.16;;;12.74;100.00
2785;BME280;57944;48.722;9.316;2023-09-07T01:09:21;98397.66;;;12.72;100.00
2785;BME280;57944;48.722;9.316;2023-09-07T01:11:54;98393.94;;;12.68;100.00
2785;BME280;57944;48.722;9.316;2023-09-07T01:14:25;98399.22;;;12.67;100.00
2785;BME280;57944;48.722;9.316;2023-09-07T01:16:55;98386.66;;;12.65;100.00
2785;BME280;57944;48.722;9.316;2023-09-07T01:19:29;98392.94;;;12.69;100.00
2785;BME280;57944;48.722;9.316;2023-09-07T01:22:03;98384.50;;;12.69;100.00
2785;BME280;57944;48.722;9.316;2023-09-07T01:24:35;98391.78;;;12.65;100.00
2785;BME280;57944;48.722;9.316;2023-09-07T01:27:07;98391.34;;;12.62;100.00
2785;BME280;57944;48.722;9.316;2023-09-07T01:29:38;98394.13;;;12.60;100.00
2785;BME280;57944;48.722;9.316;2023-09-07T01:32:09;98391.34;;;12.62;100.00
2785;BME280;57944;48.722;9.316;2023-09-07T01:34:41;98388.63;;;12.63;100.00
2785;BME280;57944;48.722;9.316;2023-09-07T01:37:14;98392.56;;;12.59;100.00
2785;BME280;57944;48.722;9.316;2023-09-07T01:39:45;98386.06;;;12.63;100.00
2785;BME280;57944;48.722;9.316;2023-09-07T01:42:16;98383.50;;;12.63;100.00
2785;BME280;57944;48.722;9.316;2023-09-07T01:44:49;98388.78;;;12.62;100.00
2785;BME280;57944;48.722;9.316;2023-09-07T01:47:20;98388.00;;;12.61;100.00
2785;BME280;57944;48.722;9.316;2023-09-07T01:49:51;98387.44;;;12.59;100.00
2785;BME280;57944;48.722;9.316;2023-09-07T01:52:24;98389.78;;;12.54;100.00
2785;BME280;57944;48.722;9.316;2023-09-07T01:54:56;98385.25;;;12.49;100.00
2785;BME280;57944;48.722;9.316;2023-09-07T01:57:27;98388.41;;;12.51;100.00
2785;BME280;57944;48.722;9.316;2023-09-07T01:59:58;98394.88;;;12.47;100.00
2785;BME280;57944;48.722;9.316;2023-09-07T02:02:39;98394.09;;;12.40;100.00
2785;BME280;57944;48.722;9.316;2023-09-07T02:05:10;98393.66;;;12.37;100.00
2785;BME280;57944;48.722;9.316;2023-09-07T02:07:43;98396.44;;;12.42;100.00
2785;BME280;57944;48.722;9.316;2023-09-07T02:10:17;98402.75;;;12.46;100.00
2785;BME280;57944;48.722;9.316;2023-09-07T02:12:47;98396.44;;;12.42;100.00
2785;BME280;57944;48.722;9.316;2023-09-07T02:15:19;98395.66;;;12.41;100.00
2785;BME280;57944;48.722;9.316;2023-09-07T02:17:50;98393.91;;;12.48;100.00
2785;BME280;57944;48.722;9.316;2023-09-07T02:20:21;98392.91;;;12.43;100.00
2785;BME280;57944;48.722;9.316;2023-09-07T02:22:54;98398.19;;;12.35;100.00
2785;BME280;57944;48.722;9.316;2023-09-07T02:25:25;98398.38;;;12.26;100.00
2785;BME280;57944;48.722;9.316;2023-09-07T02:27:58;98406.59;;;12.15;100.00
2785;BME280;57944;48.722;9.316;2023-09-07T02:30:28;98395.75;;;12.13;100.00
2785;BME280;57944;48.722;9.316;2023-09-07T02:32:59;98405.75;;;12.08;100.00
2785;BME280;57944;48.722;9.316;2023-09-07T02:35:32;98400.69;;;12.15;100.00
2785;BME280;57944;48.722;9.316;2023-09-07T02:38:09;98396.38;;;12.15;100.00
2785;BME280;57944;48.722;9.316;2023-09-07T02:40:41;98399.88;;;12.14;100.00
2785;BME280;57944;48.722;9.316;2023-09-07T02:43:13;98395.94;;;12.12;100.00
2785;BME280;57944;48.722;9.316;2023-09-07T02:45:44;98392.81;;;12.10;100.00
2785;BME280;57944;48.722;9.316;2023-09-07T02:48:14;98397.88;;;12.03;100.00
2785;BME280;57944;48.722;9.316;2023-09-07T02:50:45;98395.88;;;11.92;100.00
2785;BME280;57944;48.722;9.316;2023-09-07T02:53:23;98398.16;;;11.80;100.00
2785;BME280;57944;48.722;9.316;2023-09-07T02:55:54;98386.16;;;11.80;100.00
2785;BME280;57944;48.722;9.316;2023-09-07T02:58:27;98394.03;;;11.79;100.00
2785;BME280;57944;48.722;9.316;2023-09-07T03:00:58;98388.72;;;11.80;100.00
2785;BME280;57944;48.722;9.316;2023-09-07T03:03:29;98385.38;;;11.80;100.00
2785;BME280;57944;48.722;9.316;2023-09-07T03:06:08;98388.72;;;11.80;100.00
2785;BME280;57944;48.722;9.316;2023-09-07T03:08:43;98381.66;;;11.82;100.00
2785;BME280;57944;48.722;9.316;2023-09-07T03:11:14;98378.50;;;11.80;100.00
2785;BME280;57944;48.722;9.316;2023-09-07T03:13:47;98379.66;;;11.78;100.00
2785;BME280;57944;48.722;9.316;2023-09-07T03:16:18;98380.81;;;11.75;100.00
2785;BME280;57944;48.722;9.316;2023-09-07T03:18:49;98376.47;;;11.69;100.00
2785;BME280;57944;48.722;9.316;2023-09-07T03:21:19;98372.91;;;11.63;100.00
2785;BME280;57944;48.722;9.316;2023-09-07T03:23:55;98368.22;;;11.67;100.00
2785;BME280;57944;48.722;9.316;2023-09-07T03:26:27;98372.91;;;11.63;100.00
2785;BME280;57944;48.722;9.316;2023-09-07T03:28:58;98368.81;;;11.62;100.00
2785;BME280;57944;48.722;9.316;2023-09-07T03:31:29;98371.91;;;11.58;100.00
2785;BME280;57944;48.722;9.316;2023-09-07T03:34:00;98374.81;;;11.48;100.00
2785;BME280;57944;48.722;9.316;2023-09-07T03:36:30;98379.47;;;11.45;100.00
2785;BME280;57944;48.722;9.316;2023-09-07T03:39:03;98374.00;;;11.48;100.00
2785;BME280;57944;48.722;9.316;2023-09-07T03:41:35;98384.00;;;11.43;100.00
2785;BME280;57944;48.722;9.316;2023-09-07T03:44:06;98382.56;;;11.33;100.00
2785;BME280;57944;48.722;9.316;2023-09-07T03:46:37;98381.78;;;11.33;100.00
2785;BME280;57944;48.722;9.316;2023-09-07T03:49:08;98388.09;;;11.37;100.00
2785;BME280;57944;48.722;9.316;2023-09-07T03:51:39;98381.78;;;11.33;100.00
2785;BME280;57944;48.722;9.316;2023-09-07T03:54:12;98380.56;;;11.29;100.00
2785;BME280;57944;48.722;9.316;2023-09-07T03:56:42;98383.69;;;11.24;100.00
2785;BME280;57944;48.722;9.316;2023-09-07T03:59:13;98385.25;;;11.25;100.00
2785;BME280;57944;48.722;9.316;2023-09-07T04:01:44;98382.53;;;11.27;100.00
2785;BME280;57944;48.722;9.316;2023-09-07T04:04:16;98378.56;;;11.24;100.00
2785;BME280;57944;48.722;9.316;2023-09-07T04:06:47;98378.94;;;11.21;100.00
2785;BME280;57944;48.722;9.316;2023-09-07T04:09:20;98373.44;;;11.17;100.00
2785;BME280;57944;48.722;9.316;2023-09-07T04:11:51;98385.38;;;11.17;100.00
2785;BME280;57944;48.722;9.316;2023-09-07T04:14:21;98377.94;;;11.15;100.00
2785;BME280;57944;48.722;9.316;2023-09-07T04:16:52;98381.22;;;11.09;100.00
2785;BME280;57944;48.722;9.316;2023-09-07T04:19:23;98370.59;;;11.06;100.00
2785;BME280;57944;48.722;9.316;2023-09-07T04:21:54;98376.91;;;11.10;100.00
2785;BME280;57944;48.722;9.316;2023-09-07T04:24:28;98379.59;;;11.02;100.00
2785;BME280;57944;48.722;9.316;2023-09-07T04:26:59;98379.75;;;11.00;100.00
2785;BME280;57944;48.722;9.316;2023-09-07T04:29:33;98380.34;;;10.95;100.00
2785;BME280;57944;48.722;9.316;2023-09-07T04:32:05;98377.16;;;10.93;100.00
2785;BME280;57944;48.722;9.316;2023-09-07T04:34:36;98381.84;;;10.90;100.00
2785;BME280;57944;48.722;9.316;2023-09-07T04:37:07;98380.09;;;10.90;100.00
2785;BME280;57944;48.722;9.316;2023-09-07T04:39:42;98383.47;;;10.98;100.00
2785;BME280;57944;48.722;9.316;2023-09-07T04:42:13;98385.44;;;10.95;100.00
2785;BME280;57944;48.722;9.316;2023-09-07T04:44:44;98381.84;;;10.90;100.00
2785;BME280;57944;48.722;9.316;2023-09-07T04:47:14;98381.41;;;10.86;100.00
2785;BME280;57944;48.722;9.316;2023-09-07T04:49:49;98391.03;;;10.84;100.00
2785;BME280;57944;48.722;9.316;2023-09-07T04:52:22;98388.84;;;10.81;100.00
2785;BME280;57944;48.722;9.316;2023-09-07T04:54:55;98382.59;;;10.84;100.00
2785;BME280;57944;48.722;9.316;2023-09-07T04:57:25;98380.09;;;10.90;100.00
2785;BME280;57944;48.722;9.316;2023-09-07T04:59:56;98374.44;;;10.95;100.00
2785;BME280;57944;48.722;9.316;2023-09-07T05:02:27;98386.03;;;10.98;100.00
2785;BME280;57944;48.722;9.316;2023-09-07T05:04:58;98378.81;;;11.01;100.00
2785;BME280;57944;48.722;9.316;2023-09-07T05:07:29;98383.91;;;11.01;100.00
2785;BME280;57944;48.722;9.316;2023-09-07T05:10:02;98383.94;;;11.08;100.00
2785;BME280;57944;48.722;9.316;2023-09-07T05:12:35;98388.69;;;11.11;100.00
2785;BME280;57944;48.722;9.316;2023-09-07T05:15:07;98391.09;;;11.19;100.00
2785;BME280;57944;48.722;9.316;2023-09-07T05:17:37;98399.97;;;11.23;100.00
2785;BME280;57944;48.722;9.316;2023-09-07T05:20:09;98396.44;;;11.24;100.00
2785;BME280;57944;48.722;9.316;2023-09-07T05:22:40;98401.94;;;11.28;100.00
2785;BME280;57944;48.722;9.316;2023-09-07T05:25:13;98410.81;;;11.32;100.00
2785;BME280;57944;48.722;9.316;2023-09-07T05:27:44;98413.41;;;11.38;100.00
2785;BME280;57944;48.722;9.316;2023-09-07T05:30:15;98413.47;;;11.45;100.00
2785;BME280;57944;48.722;9.316;2023-09-07T05:32:46;98407.03;;;11.56;100.00
2785;BME280;57944;48.722;9.316;2023-09-07T05:35:16;98416.16;;;11.65;100.00
2785;BME280;57944;48.722;9.316;2023-09-07T05:37:48;98411.47;;;11.75;100.00
2785;BME280;57944;48.722;9.316;2023-09-07T05:40:21;98415.84;;;11.81;100.00
2785;BME280;57944;48.722;9.316;2023-09-07T05:42:52;98413.88;;;11.83;100.00
2785;BME280;57944;48.722;9.316;2023-09-07T05:45:23;98417.19;;;12.12;100.00
2785;BME280;57944;48.722;9.316;2023-09-07T05:47:53;98420.91;;;12.91;100.00
2785;BME280;57944;48.722;9.316;2023-09-07T05:50:24;98422.84;;;13.82;100.00
2785;BME280;57944;48.722;9.316;2023-09-07T05:52:55;98421.78;;;14.55;100.00
2785;BME280;57944;48.722;9.316;2023-09-07T05:55:29;98423.56;;;15.11;100.00
2785;BME280;57944;48.722;9.316;2023-09-07T05:58:04;98420.94;;;15.61;100.00
2785;BME280;57944;48.722;9.316;2023-09-07T06:00:38;98417.78;;;16.14;100.00
2785;BME280;57944;48.722;9.316;2023-09-07T06:03:09;98413.16;;;16.65;100.00
2785;BME280;57944;48.722;9.316;2023-09-07T06:05:40;98424.91;;;17.38;100.00
2785;BME280;57944;48.722;9.316;2023-09-07T06:08:12;98423.19;;;17.91;100.00
2785;BME280;57944;48.722;9.316;2023-09-07T06:10:45;98420.50;;;18.54;100.00
2785;BME280;57944;48.722;9.316;2023-09-07T06:13:16;98422.19;;;19.28;100.00
2785;BME280;57944;48.722;9.316;2023-09-07T06:15:47;98427.16;;;19.91;100.00
2785;BME280;57944;48.722;9.316;2023-09-07T06:18:17;98428.09;;;20.34;100.00
2785;BME280;57944;48.722;9.316;2023-09-07T06:20:48;98428.03;;;20.78;100.00
2785;BME280;57944;48.722;9.316;2023-09-07T06:23:19;98421.06;;;21.15;100.00
2785;BME280;57944;48.722;9.316;2023-09-07T06:25:52;98422.59;;;21.59;100.00
2785;BME280;57944;48.722;9.316;2023-09-07T06:28:22;98425.47;;;22.25;100.00
2785;BME280;57944;48.722;9.316;2023-09-07T06:30:53;98421.09;;;22.82;100.00
2785;BME280;57944;48.722;9.316;2023-09-07T06:33:24;98420.59;;;23.06;100.00
2785;BME280;57944;48.722;9.316;2023-09-07T06:35:55;98427.47;;;23.56;100.00
2785;BME280;57944;48.722;9.316;2023-09-07T06:38:29;98424.66;;;23.48;100.00
2785;BME280;57944;48.722;9.316;2023-09-07T06:41:03;98429.72;;;23.99;98.06
2785;BME280;57944;48.722;9.316;2023-09-07T06:43:36;98423.28;;;24.25;87.09
2785;BME280;57944;48.722;9.316;2023-09-07T06:46:09;98418.41;;;24.19;92.51
2785;BME280;57944;48.722;9.316;2023-09-07T06:48:39;98431.31;;;24.73;84.87
2785;BME280;57944;48.722;9.316;2023-09-07T06:51:10;98426.91;;;25.56;76.51
2785;BME280;57944;48.722;9.316;2023-09-07T06:53:41;98426.06;;;26.04;64.49
2785;BME280;57944;48.722;9.316;2023-09-07T06:56:27;98428.47;;;26.57;60.27
2785;BME280;57944;48.722;9.316;2023-09-07T06:58:59;98425.13;;;26.70;56.79
2785;BME280;57944;48.722;9.316;2023-09-07T07:01:30;98428.72;;;26.74;56.17
2785;BME280;57944;48.722;9.316;2023-09-07T07:04:00;98428.94;;;26.40;56.11
2785;BME280;57944;48.722;9.316;2023-09-07T07:06:31;98432.47;;;26.68;54.89
2785;BME280;57944;48.722;9.316;2023-09-07T07:09:02;98428.94;;;26.78;55.74
2785;BME280;57944;48.722;9.316;2023-09-07T07:11:36;98431.56;;;26.40;56.30
2785;BME280;57944;48.722;9.316;2023-09-07T07:14:07;98427.34;;;26.44;56.45
2785;BME280;57944;48.722;9.316;2023-09-07T07:16:39;98424.03;;;27.04;54.23
2785;BME280;57944;48.722;9.316;2023-09-07T07:19:10;98436.31;;;27.64;52.17
2785;BME280;57944;48.722;9.316;2023-09-07T07:21:40;98426.78;;;27.68;50.86
2785;BME280;57944;48.722;9.316;2023-09-07T07:24:12;98426.41;;;27.47;51.32
2785;BME280;57944;48.722;9.316;2023-09-07T07:26:45;98423.91;;;26.95;52.15
2785;BME280;57944;48.722;9.316;2023-09-07T07:29:16;98426.75;;;26.47;55.81
2785;BME280;57944;48.722;9.316;2023-09-07T07:31:46;98431.56;;;26.40;55.54
2785;BME280;57944;48.722;9.316;2023-09-07T07:34:18;98428.63;;;26.28;53.80
2785;BME280;57944;48.722;9.316;2023-09-07T07:36:49;98423.03;;;26.35;56.10
2785;BME280;57944;48.722;9.316;2023-09-07T07:39:19;98426.28;;;27.11;53.21
2785;BME280;57944;48.722;9.316;2023-09-07T07:41:53;98427.31;;;28.65;48.27
2785;BME280;57944;48.722;9.316;2023-09-07T07:44:24;98423.41;;;29.56;45.45
2785;BME280;57944;48.722;9.316;2023-09-07T07:46:55;98432.47;;;30.25;44.08
2785;BME280;57944;48.722;9.316;2023-09-07T07:49:26;98421.53;;;30.96;40.66
2785;BME280;57944;48.722;9.316;2023-09-07T07:51:57;98422.69;;;30.52;41.97
2785;BME280;57944;48.722;9.316;2023-09-07T07:54:28;98422.84;;;29.94;42.56
2785;BME280;57944;48.722;9.316;2023-09-07T07:57:04;98422.09;;;29.36;43.86
2785;BME280;57944;48.722;9.316;2023-09-07T07:59:34;98424.28;;;29.43;44.27
2785;BME280;57944;48.722;9.316;2023-09-07T08:02:06;98431.16;;;28.90;43.96
2785;BME280;57944;48.722;9.316;2023-09-07T08:04:37;98431.28;;;29.16;44.50
2785;BME280;57944;48.722;9.316;2023-09-07T08:07:08;98420.53;;;29.27;43.94
2785;BME280;57944;48.722;9.316;2023-09-07T08:09:39;98432.13;;;30.18;44.29
2785;BME280;57944;48.722;9.316;2023-09-07T08:12:13;98417.00;;;31.65;40.29
2785;BME280;57944;48.722;9.316;2023-09-07T08:14:44;98420.78;;;32.60;38.40
2785;BME280;57944;48.722;9.316;2023-09-07T08:17:14;98413.06;;;33.00;37.36
2785;BME280;57944;48.722;9.316;2023-09-07T08:19:46;98417.78;;;32.49;38.94
2785;BME280;57944;48.722;9.316;2023-09-07T08:22:25;98403.50;;;33.85;36.43
2785;BME280;57944;48.722;9.316;2023-09-07T08:24:56;98401.06;;;34.96;35.37
2785;BME280;57944;48.722;9.316;2023-09-07T08:27:30;98402.34;;;35.69;33.54
2785;BME280;57944;48.722;9.316;2023-09-07T08:30:00;98400.47;;;35.54;33.22
2785;BME280;57944;48.722;9.316;2023-09-07T08:32:33;98397.22;;;34.18;35.25
2785;BME280;57944;48.722;9.316;2023-09-07T08:35:05;98400.91;;;32.41;38.19
2785;BME280;57944;48.722;9.316;2023-09-07T08:37:36;98396.50;;;33.65;36.83
2785;BME280;57944;48.722;9.316;2023-09-07T08:40:08;98397.84;;;33.34;37.10
2785;BME280;57944;48.722;9.316;2023-09-07T08:42:42;98406.53;;;32.98;37.67
2785;BME280;57944;48.722;9.316;2023-09-07T08:45:14;98408.00;;;34.25;35.50
2785;BME280;57944;48.722;9.316;2023-09-07T08:47:53;98402.47;;;33.62;36.22
2785;BME280;57944;48.722;9.316;2023-09-07T08:50:25;98408.78;;;34.85;34.82
2785;BME280;57944;48.722;9.316;2023-09-07T08:52:57;98408.63;;;35.80;33.87
2785;BME280;57944;48.722;9.316;2023-09-07T08:55:31;98408.38;;;35.34;34.02
2785;BME280;57944;48.722;9.316;2023-09-07T08:58:04;98409.72;;;35.60;32.91
2785;BME280;57944;48.722;9.316;2023-09-07T09:00:35;98412.38;;;36.18;32.60
2785;BME280;57944;48.722;9.316;2023-09-07T09:03:06;98413.34;;;36.30;32.07
2785;BME280;57944;48.722;9.316;2023-09-07T09:05:39;98406.44;;;36.94;31.57
2785;BME280;57944;48.722;9.316;2023-09-07T09:08:10;98417.16;;;36.75;31.56
2785;BME280;57944;48.722;9.316;2023-09-07T09:10:41;98409.09;;;35.67;32.98
2785;BME280;57944;48.722;9.316;2023-09-07T09:13:14;98403.38;;;36.46;31.78
2785;BME280;57944;48.722;9.316;2023-09-07T09:15:45;98407.38;;;36.56;31.84
2785;BME280;57944;48.722;9.316;2023-09-07T09:18:18;98405.88;;;35.96;32.30
2785;BME280;57944;48.722;9.316;2023-09-07T09:20:48;98402.03;;;35.94;32.43
2785;BME280;57944;48.722;9.316;2023-09-07T09:23:19;98400.66;;;36.62;31.98
2785;BME280;57944;48.722;9.316;2023-09-07T09:25:50;98400.75;;;36.92;31.49
2785;BME280;57944;48.722;9.316;2023-09-07T09:28:23;98396.25;;;36.08;32.59
2785;BME280;57944;48.722;9.316;2023-09-07T09:30:55;98392.31;;;36.63;32.09
2785;BME280;57944;48.722;9.316;2023-09-07T09:33:26;98396.13;;;36.43;31.92
2785;BME280;57944;48.722;9.316;2023-09-07T09:35:57;98396.16;;;36.89;31.37
2785;BME280;57944;48.722;9.316;2023-09-07T09:38:28;98386.47;;;36.54;31.67
2785;BME280;57944;48.722;9.316;2023-09-07T09:41:00;98381.16;;;35.02;34.16
2785;BME280;57944;48.722;9.316;2023-09-07T09:43:34;98378.38;;;35.85;33.33
2785;BME280;57944;48.722;9.316;2023-09-07T09:46:05;98387.69;;;37.06;31.62
2785;BME280;57944;48.722;9.316;2023-09-07T09:48:36;98379.72;;;37.97;29.69
2785;BME280;57944;48.722;9.316;2023-09-07T09:51:08;98382.41;;;38.82;29.07
2785;BME280;57944;48.722;9.316;2023-09-07T09:53:39;98379.88;;;38.49;29.32
2785;BME280;57944;48.722;9.316;2023-09-07T09:56:09;98382.66;;;39.18;28.84
2785;BME280;57944;48.722;9.316;2023-09-07T09:58:43;98373.66;;;38.00;29.88
2785;BME280;57944;48.722;9.316;2023-09-07T10:01:14;98372.00;;;36.75;31.44
2785;BME280;57944;48.722;9.316;2023-09-07T10:03:47;98368.88;;;36.23;32.81
2785;BME280;57944;48.722;9.316;2023-09-07T10:06:22;98373.97;;;36.78;31.96
2785;BME280;57944;48.722;9.316;2023-09-07T10:08:58;98368.75;;;37.38;30.87
2785;BME280;57944;48.722;9.316;2023-09-07T10:11:30;98369.63;;;36.46;32.57
2785;BME280;57944;48.722;9.316;2023-09-07T10:14:05;98363.44;;;36.58;31.58
2785;BME280;57944;48.722;9.316;2023-09-07T10:16:43;98367.06;;;37.00;31.09
2785;BME280;57944;48.722;9.316;2023-09-07T10:19:18;98362.44;;;37.20;30.67
2785;BME280;57944;48.722;9.316;2023-09-07T10:21:49;98360.47;;;38.11;30.12
2785;BME280;57944;48.722;9.316;2023-09-07T10:24:27;98355.09;;;38.96;29.02
2785;BME280;57944;48.722;9.316;2023-09-07T10:27:00;98353.97;;;37.71;30.03
2785;BME280;57944;48.722;9.316;2023-09-07T10:29:45;98359.19;;;37.03;30.72
2785;BME280;57944;48.722;9.316;2023-09-07T10:32:21;98359.44;;;36.72;31.62
2785;BME280;57944;48.722;9.316;2023-09-07T10:34:52;98351.19;;;36.31;31.66
2785;BME280;57944;48.722;9.316;2023-09-07T10:37:29;98345.50;;;37.05;30.86
2785;BME280;57944;48.722;9.316;2023-09-07T10:39:59;98344.63;;;36.71;31.84
2785;BME280;57944;48.722;9.316;2023-09-07T10:42:31;98339.47;;;36.12;32.01
2785;BME280;57944;48.722;9.316;2023-09-07T10:45:12;98334.19;;;36.12;32.96
2785;BME280;57944;48.722;9.316;2023-09-07T10:47:44;98339.53;;;36.85;31.61
2785;BME280;57944;48.722;9.316;2023-09-07T10:50:15;98336.03;;;37.34;31.15
2785;BME280;57944;48.722;9.316;2023-09-07T10:52:46;98332.44;;;38.20;29.83
2785;BME280;57944;48.722;9.316;2023-09-07T10:55:17;98338.81;;;37.15;30.78
2785;BME280;57944;48.722;9.316;2023-09-07T10:57:48;98329.53;;;36.29;32.60
2785;BME280;57944;48.722;9.316;2023-09-07T11:00:21;98336.38;;;36.76;32.00
2785;BME280;57944;48.722;9.316;2023-09-07T11:02:52;98326.22;;;36.12;33.09
2785;BME280;57944;48.722;9.316;2023-09-07T11:05:23;98321.38;;;35.75;32.96
2785;BME280;57944;48.722;9.316;2023-09-07T11:07:54;98320.84;;;34.16;34.82
2785;BME280;57944;48.722;9.316;2023-09-07T11:10:28;98318.94;;;32.46;38.73
2785;BME280;57944;48.722;9.316;2023-09-07T11:13:05;98317.53;;;31.41;40.62
2785;BME280;57944;48.722;9.316;2023-09-07T11:15:38;98314.00;;;31.28;41.47
2785;BME280;57944;48.722;9.316;2023-09-07T11:18:09;98322.03;;;32.15;40.13
2785;BME280;57944;48.722;9.316;2023-09-07T11:20:41;98326.63;;;32.06;39.36
2785;BME280;57944;48.722;9.316;2023-09-07T11:23:12;98320.50;;;32.72;39.21
2785;BME280;57944;48.722;9.316;2023-09-07T11:25:43;98310.69;;;33.22;37.09
2785;BME280;57944;48.722;9.316;2023-09-07T11:28:17;98315.97;;;34.34;35.28
2785;BME280;57944;48.722;9.316;2023-09-07T11:30:54;98308.94;;;35.60;33.68
2785;BME280;57944;48.722;9.316;2023-09-07T11:33:25;98304.00;;;36.97;31.59
2785;BME280;57944;48.722;9.316;2023-09-07T11:35:56;98302.81;;;36.94;32.09
2785;BME280;57944;48.722;9.316;2023-09-07T11:38:29;98297.84;;;38.24;30.25
2785;BME280;57944;48.722;9.316;2023-09-07T11:41:00;98295.75;;;39.10;29.28
2785;BME280;57944;48.722;9.316;2023-09-07T11:43:31;98300.50;;;39.56;28.56
2785;BME280;57944;48.722;9.316;2023-09-07T11:46:04;98294.72;;;39.36;28.43
2785;BME280;57944;48.722;9.316;2023-09-07T11:48:39;98287.94;;;39.64;28.35
2785;BME280;57944;48.722;9.316;2023-09-07T11:51:09;98290.34;;;38.40;29.36
2785;BME280;57944;48.722;9.316;2023-09-07T11:53:40;98278.66;;;37.67;30.40
2785;BME280;57944;48.722;9.316;2023-09-07T11:56:11;98282.63;;;36.59;31.37
2785;BME280;57944;48.722;9.316;2023-09-07T11:58:41;98287.00;;;37.62;30.19
2785;BME280;57944;48.722;9.316;2023-09-07T12:01:15;98288.66;;;38.18;29.96
2785;BME280;57944;48.722;9.316;2023-09-07T12:03:47;98283.63;;;38.54;29.31
2785;BME280;57944;48.722;9.316;2023-09-07T12:06:18;98279.88;;;38.65;28.69
2785;BME280;57944;48.722;9.316;2023-09-07T12:08:59;98274.97;;;38.71;28.55
2785;BME280;57944;48.722;9.316;2023-09-07T12:11:32;98273.34;;;38.56;29.52
2785;BME280;57944;48.722;9.316;2023-09-07T12:14:03;98278.59;;;36.99;31.80
2785;BME280;57944;48.722;9.316;2023-09-07T12:16:37;98277.97;;;37.06;31.99
2785;BME280;57944;48.722;9.316;2023-09-07T12:19:08;98276.34;;;36.48;33.02
2785;BME280;57944;48.722;9.316;2023-09-07T12:21:39;98272.28;;;35.85;34.25
2785;BME280;57944;48.722;9.316;2023-09-07T12:24:09;98274.59;;;35.09;34.25
2785;BME280;57944;48.722;9.316;2023-09-07T12:26:40;98261.25;;;34.70;36.32
2785;BME280;57944;48.722;9.316;2023-09-07T12:29:14;98262.50;;;34.76;36.70
2785;BME280;57944;48.722;9.316;2023-09-07T12:31:47;98260.84;;;33.76;37.16
2785;BME280;57944;48.722;9.316;2023-09-07T12:34:18;98261.75;;;33.52;37.88
2785;BME280;57944;48.722;9.316;2023-09-07T12:36:48;98251.16;;;31.80;41.28
2785;BME280;57944;48.722;9.316;2023-09-07T12:39:19;98253.63;;;31.02;42.92
2785;BME280;57944;48.722;9.316;2023-09-07T12:41:50;98253.75;;;30.46;45.11
2785;BME280;57944;48.722;9.316;2023-09-07T12:44:20;98242.00;;;29.79;46.76
2785;BME280;57944;48.722;9.316;2023-09-07T12:46:54;98244.53;;;30.14;45.23
2785;BME280;57944;48.722;9.316;2023-09-07T12:49:24;98239.81;;;29.81;45.87
2785;BME280;57944;48.722;9.316;2023-09-07T12:51:55;98246.78;;;29.59;46.88
2785;BME280;57944;48.722;9.316;2023-09-07T12:54:25;98238.59;;;29.52;48.54
2785;BME280;57944;48.722;9.316;2023-09-07T12:56:56;98239.81;;;29.55;49.68
2785;BME280;57944;48.722;9.316;2023-09-07T12:59:28;98237.19;;;29.55;48.26
2785;BME280;57944;48.722;9.316;2023-09-07T13:02:01;98241.53;;;29.68;48.96
2785;BME280;57944;48.722;9.316;2023-09-07T13:04:32;98243.19;;;30.55;44.65
2785;BME280;57944;48.722;9.316;2023-09-07T13:07:03;98245.97;;;32.05;40.34
2785;BME280;57944;48.722;9.316;2023-09-07T13:09:33;98235.81;;;33.30;37.75
2785;BME280;57944;48.722;9.316;2023-09-07T13:12:05;98242.50;;;35.72;33.91
2785;BME280;57944;48.722;9.316;2023-09-07T13:14:36;98241.97;;;37.46;31.77
2785;BME280;57944;48.722;9.316;2023-09-07T13:17:11;98243.41;;;36.26;32.83
2785;BME280;57944;48.722;9.316;2023-09-07T13:19:43;98237.09;;;37.18;31.59
2785;BME280;57944;48.722;9.316;2023-09-07T13:22:16;98229.94;;;38.48;29.78
2785;BME280;57944;48.722;9.316;2023-09-07T13:24:47;98239.16;;;38.65;30.16
2785;BME280;57944;48.722;9.316;2023-09-07T13:27:17;98231.19;;;38.72;29.78
2785;BME280;57944;48.722;9.316;2023-09-07T13:29:48;98233.78;;;38.58;29.41